Mugan — 9HA2962 — position and weather

sailwx.info

Track history (hours):
 
Tides and Currents Weather Stations Pressure Air Temp Water Temp Dewpoint Dewpoint Depression Visibility Wind Speed Wind Dir Waves Ship Positions

Mugan

Last reported at 2017-Mar-30 21:33 UTC. Time now 2017-Mar-30 22:30 UTC.
Position N 37°08' E 002°30'.

Length 140 m; draft 4.6 m.

Type: Ship (hazmat cat B). MMSI: 256914000.

Date/timePositionNaut miles runAvg speedWind from/ knotsBaromVisibWave heightAir tempDewpointWater temp
2017-Mar-30 21:33N 37°08' E 002°30'10 9.7
2017-Mar-30 20:33N 37°09' E 002°42'  
2017-Mar-28 04:33N 36°17' E 014°11'8 8.3
2017-Mar-28 03:34N 36°13' E 014°20'9 8.7
2017-Mar-28 02:33N 36°10' E 014°29'23 2.3
2017-Mar-27 16:33N 35°53' E 014°48'10 8.8
2017-Mar-27 15:23N 35°55' E 015°01'8 9.5
2017-Mar-27 14:33N 35°56' E 015°11'417 9.1
2017-Mar-25 16:33N 36°50' E 023°44'10 9.7
2017-Mar-25 15:34N 36°59' E 023°49'10 9.5
2017-Mar-25 14:34N 37°08' E 023°54'10 9.5
2017-Mar-25 13:34N 37°16' E 023°59'10 9.8
2017-Mar-25 12:34N 37°25' E 024°04'  
2017-Mar-21 09:29N 46°23' E 030°55'19 6.5
2017-Mar-21 06:30N 46°35' E 031°17'18 9.0
2017-Mar-21 04:34N 46°36' E 031°43'9 9.0
2017-Mar-21 03:33N 46°39' E 031°55'8 8.4
2017-Mar-21 02:33N 46°47' E 031°53'9 9.1
2017-Mar-21 01:33N 46°54' E 032°01'3 2.4
2017-Mar-21 00:30N 46°57' E 032°00'0 0.0
2017-Mar-20 23:33N 46°57' E 032°00'0 0.0
2017-Mar-20 22:33N 46°57' E 032°00'  
Track history (hours):
 
Tides and Currents Weather Stations Pressure Air Temp Water Temp Dewpoint Dewpoint Depression Visibility Wind Speed Wind Dir Waves Ship Positions

Mugan

Last reported at 2017-Mar-30 21:33 UTC. Time now 2017-Mar-30 22:31 UTC.
Position N 37°08' E 002°30'.

Length 140 m; draft 4.6 m.

Type: Ship (hazmat cat B). MMSI: 256914000.

Date/timePositionNaut miles runAvg speedWind from/ knotsBaromVisibWave heightAir tempDewpointWater temp
2017-Mar-30 21:33N 37°08' E 002°30'10 9.7
2017-Mar-30 20:33N 37°09' E 002°42'  
2017-Mar-28 04:33N 36°17' E 014°11'8 8.3
2017-Mar-28 03:34N 36°13' E 014°20'9 8.7
2017-Mar-28 02:33N 36°10' E 014°29'23 2.3
2017-Mar-27 16:33N 35°53' E 014°48'10 8.8
2017-Mar-27 15:23N 35°55' E 015°01'8 9.5
2017-Mar-27 14:33N 35°56' E 015°11'417 9.1
2017-Mar-25 16:33N 36°50' E 023°44'10 9.7
2017-Mar-25 15:34N 36°59' E 023°49'10 9.5
2017-Mar-25 14:34N 37°08' E 023°54'10 9.5
2017-Mar-25 13:34N 37°16' E 023°59'10 9.8
2017-Mar-25 12:34N 37°25' E 024°04'  
2017-Mar-21 09:29N 46°23' E 030°55'19 6.5
2017-Mar-21 06:30N 46°35' E 031°17'18 9.0
2017-Mar-21 04:34N 46°36' E 031°43'9 9.0
2017-Mar-21 03:33N 46°39' E 031°55'8 8.4
2017-Mar-21 02:33N 46°47' E 031°53'9 9.1
2017-Mar-21 01:33N 46°54' E 032°01'3 2.4
2017-Mar-21 00:30N 46°57' E 032°00'0 0.0
2017-Mar-20 23:33N 46°57' E 032°00'0 0.0
2017-Mar-20 22:33N 46°57' E 032°00'  

Dump ship's entire track history